sensor_id;sensor_type;location;lat;lon;timestamp;temperature;humidity
23683;DHT22;24897;53.514;10.482;2022-09-09T00:00:26;15.20;99.90
23683;DHT22;24897;53.514;10.482;2022-09-09T00:03:14;15.20;99.90
23683;DHT22;24897;53.514;10.482;2022-09-09T00:09:12;15.30;99.90
23683;DHT22;24897;53.514;10.482;2022-09-09T00:15:00;15.30;99.90
23683;DHT22;24897;53.514;10.482;2022-09-09T00:20:55;15.30;99.90
23683;DHT22;24897;53.514;10.482;2022-09-09T00:23:54;15.30;99.90
23683;DHT22;24897;53.514;10.482;2022-09-09T00:26:40;15.30;99.90
23683;DHT22;24897;53.514;10.482;2022-09-09T00:29:35;15.30;99.90
23683;DHT22;24897;53.514;10.482;2022-09-09T00:32:29;15.30;99.90
23683;DHT22;24897;53.514;10.482;2022-09-09T00:35:18;15.30;99.90
23683;DHT22;24897;53.514;10.482;2022-09-09T00:38:18;15.30;99.90
23683;DHT22;24897;53.514;10.482;2022-09-09T00:41:22;15.30;99.90
23683;DHT22;24897;53.514;10.482;2022-09-09T00:51:00;15.30;99.90
23683;DHT22;24897;53.514;10.482;2022-09-09T00:54:07;15.30;99.90
23683;DHT22;24897;53.514;10.482;2022-09-09T00:57:13;15.30;99.90
23683;DHT22;24897;53.514;10.482;2022-09-09T01:00:17;15.40;99.90
23683;DHT22;24897;53.514;10.482;2022-09-09T01:15:21;15.40;99.90
23683;DHT22;24897;53.514;10.482;2022-09-09T01:18:10;15.40;99.90
23683;DHT22;24897;53.514;10.482;2022-09-09T01:27:01;15.30;99.90
23683;DHT22;24897;53.514;10.482;2022-09-09T01:29:46;15.30;99.90
23683;DHT22;24897;53.514;10.482;2022-09-09T01:32:46;15.30;99.90
23683;DHT22;24897;53.514;10.482;2022-09-09T01:38:31;15.20;99.90
23683;DHT22;24897;53.514;10.482;2022-09-09T01:41:16;15.10;99.90
23683;DHT22;24897;53.514;10.482;2022-09-09T01:44:01;15.10;99.90
23683;DHT22;24897;53.514;10.482;2022-09-09T01:46:46;15.10;99.90
23683;DHT22;24897;53.514;10.482;2022-09-09T01:49:30;15.00;99.90
23683;DHT22;24897;53.514;10.482;2022-09-09T01:52:16;15.00;99.90
23683;DHT22;24897;53.514;10.482;2022-09-09T01:55:00;15.00;99.90
23683;DHT22;24897;53.514;10.482;2022-09-09T02:04:43;14.80;99.90
23683;DHT22;24897;53.514;10.482;2022-09-09T02:07:40;15.00;99.90
23683;DHT22;24897;53.514;10.482;2022-09-09T02:11:17;14.80;99.90
23683;DHT22;24897;53.514;10.482;2022-09-09T02:13:37;14.80;99.90
23683;DHT22;24897;53.514;10.482;2022-09-09T02:16:42;14.80;99.90
23683;DHT22;24897;53.514;10.482;2022-09-09T02:19:32;14.70;99.90
23683;DHT22;24897;53.514;10.482;2022-09-09T02:22:22;14.70;99.90
23683;DHT22;24897;53.514;10.482;2022-09-09T02:25:10;14.70;99.90
23683;DHT22;24897;53.514;10.482;2022-09-09T02:27:56;14.70;99.90
23683;DHT22;24897;53.514;10.482;2022-09-09T02:30:45;14.70;99.90
23683;DHT22;24897;53.514;10.482;2022-09-09T02:33:36;14.70;99.90
23683;DHT22;24897;53.514;10.482;2022-09-09T02:36:24;14.70;99.90
23683;DHT22;24897;53.514;10.482;2022-09-09T02:39:10;14.70;99.90
23683;DHT22;24897;53.514;10.482;2022-09-09T02:41:54;14.70;99.90
23683;DHT22;24897;53.514;10.482;2022-09-09T02:44:38;14.70;99.90
23683;DHT22;24897;53.514;10.482;2022-09-09T02:47:35;14.70;99.90
23683;DHT22;24897;53.514;10.482;2022-09-09T02:50:29;14.80;99.90
23683;DHT22;24897;53.514;10.482;2022-09-09T02:53:27;14.80;99.90
23683;DHT22;24897;53.514;10.482;2022-09-09T02:56:17;14.80;99.90
23683;DHT22;24897;53.514;10.482;2022-09-09T02:59:04;14.80;99.90
23683;DHT22;24897;53.514;10.482;2022-09-09T03:01:48;16.10;99.90
23683;DHT22;24897;53.514;10.482;2022-09-09T03:04:32;14.90;99.90
23683;DHT22;24897;53.514;10.482;2022-09-09T03:07:17;14.80;99.90
23683;DHT22;24897;53.514;10.482;2022-09-09T03:10:02;14.80;99.90
23683;DHT22;24897;53.514;10.482;2022-09-09T03:12:46;14.80;99.90
23683;DHT22;24897;53.514;10.482;2022-09-09T03:15:31;12.80;99.90
23683;DHT22;24897;53.514;10.482;2022-09-09T03:18:15;14.70;99.90
23683;DHT22;24897;53.514;10.482;2022-09-09T03:21:00;14.80;99.90
23683;DHT22;24897;53.514;10.482;2022-09-09T03:23:45;14.80;99.90
23683;DHT22;24897;53.514;10.482;2022-09-09T03:26:29;14.70;99.90
23683;DHT22;24897;53.514;10.482;2022-09-09T03:29:14;14.70;99.90
23683;DHT22;24897;53.514;10.482;2022-09-09T03:31:59;15.60;99.90
23683;DHT22;24897;53.514;10.482;2022-09-09T03:34:44;14.60;99.90
23683;DHT22;24897;53.514;10.482;2022-09-09T03:37:28;14.60;99.90
23683;DHT22;24897;53.514;10.482;2022-09-09T03:40:13;14.50;99.90
23683;DHT22;24897;53.514;10.482;2022-09-09T03:42:58;14.50;99.90
23683;DHT22;24897;53.514;10.482;2022-09-09T03:45:45;14.50;99.90
23683;DHT22;24897;53.514;10.482;2022-09-09T03:48:31;14.50;99.90
23683;DHT22;24897;53.514;10.482;2022-09-09T03:51:15;14.40;99.90
23683;DHT22;24897;53.514;10.482;2022-09-09T03:53:59;14.40;99.90
23683;DHT22;24897;53.514;10.482;2022-09-09T03:56:44;14.40;99.90
23683;DHT22;24897;53.514;10.482;2022-09-09T03:59:29;14.90;99.90
23683;DHT22;24897;53.514;10.482;2022-09-09T04:02:14;14.20;99.90
23683;DHT22;24897;53.514;10.482;2022-09-09T04:04:59;14.30;99.90
23683;DHT22;24897;53.514;10.482;2022-09-09T04:07:43;14.20;99.90
23683;DHT22;24897;53.514;10.482;2022-09-09T04:10:27;14.20;99.90
23683;DHT22;24897;53.514;10.482;2022-09-09T04:13:14;14.20;99.90
23683;DHT22;24897;53.514;10.482;2022-09-09T04:16:01;14.20;99.90
23683;DHT22;24897;53.514;10.482;2022-09-09T04:18:46;14.20;99.90
23683;DHT22;24897;53.514;10.482;2022-09-09T04:21:30;14.10;99.90
23683;DHT22;24897;53.514;10.482;2022-09-09T04:24:15;14.20;99.90
23683;DHT22;24897;53.514;10.482;2022-09-09T04:27:00;14.20;99.90
23683;DHT22;24897;53.514;10.482;2022-09-09T04:29:44;14.20;99.90
23683;DHT22;24897;53.514;10.482;2022-09-09T04:32:28;14.10;99.90
23683;DHT22;24897;53.514;10.482;2022-09-09T04:35:12;14.20;99.90
23683;DHT22;24897;53.514;10.482;2022-09-09T04:37:56;14.20;99.90
23683;DHT22;24897;53.514;10.482;2022-09-09T04:40:43;14.20;99.90
23683;DHT22;24897;53.514;10.482;2022-09-09T04:43:27;14.20;99.90
23683;DHT22;24897;53.514;10.482;2022-09-09T04:46:11;14.20;99.90
23683;DHT22;24897;53.514;10.482;2022-09-09T04:48:55;14.10;99.90
23683;DHT22;24897;53.514;10.482;2022-09-09T04:51:39;14.10;99.90
23683;DHT22;24897;53.514;10.482;2022-09-09T04:54:24;14.20;99.90
23683;DHT22;24897;53.514;10.482;2022-09-09T04:57:10;14.20;99.90
23683;DHT22;24897;53.514;10.482;2022-09-09T04:59:54;14.30;99.90
23683;DHT22;24897;53.514;10.482;2022-09-09T05:02:39;14.30;99.90
23683;DHT22;24897;53.514;10.482;2022-09-09T05:05:24;14.40;99.90
23683;DHT22;24897;53.514;10.482;2022-09-09T05:08:09;14.50;99.90
23683;DHT22;24897;53.514;10.482;2022-09-09T05:10:53;14.50;99.90
23683;DHT22;24897;53.514;10.482;2022-09-09T05:13:39;14.50;99.90
23683;DHT22;24897;53.514;10.482;2022-09-09T05:16:24;14.60;99.90
23683;DHT22;24897;53.514;10.482;2022-09-09T05:19:08;14.70;99.90
23683;DHT22;24897;53.514;10.482;2022-09-09T05:21:53;14.60;99.90
23683;DHT22;24897;53.514;10.482;2022-09-09T05:24:38;14.70;99.90
23683;DHT22;24897;53.514;10.482;2022-09-09T05:27:22;14.70;99.90
23683;DHT22;24897;53.514;10.482;2022-09-09T05:30:07;14.60;99.90
23683;DHT22;24897;53.514;10.482;2022-09-09T05:32:52;14.70;99.90
23683;DHT22;24897;53.514;10.482;2022-09-09T05:35:36;14.70;99.90
23683;DHT22;24897;53.514;10.482;2022-09-09T05:38:21;14.70;99.90
23683;DHT22;24897;53.514;10.482;2022-09-09T05:41:10;14.60;99.90
23683;DHT22;24897;53.514;10.482;2022-09-09T05:43:55;14.70;99.90
23683;DHT22;24897;53.514;10.482;2022-09-09T05:46:39;14.80;99.90
23683;DHT22;24897;53.514;10.482;2022-09-09T05:49:23;14.80;99.90
23683;DHT22;24897;53.514;10.482;2022-09-09T05:52:08;14.90;99.90
23683;DHT22;24897;53.514;10.482;2022-09-09T05:54:53;15.00;99.90
23683;DHT22;24897;53.514;10.482;2022-09-09T05:57:38;15.00;99.90
23683;DHT22;24897;53.514;10.482;2022-09-09T06:00:23;15.00;99.90
23683;DHT22;24897;53.514;10.482;2022-09-09T06:03:10;15.10;99.90
23683;DHT22;24897;53.514;10.482;2022-09-09T06:05:59;15.10;99.90
23683;DHT22;24897;53.514;10.482;2022-09-09T06:08:44;15.20;99.90
23683;DHT22;24897;53.514;10.482;2022-09-09T06:11:30;15.30;99.90
23683;DHT22;24897;53.514;10.482;2022-09-09T06:14:20;15.50;99.90
23683;DHT22;24897;53.514;10.482;2022-09-09T06:17:04;15.50;99.90
23683;DHT22;24897;53.514;10.482;2022-09-09T06:19:49;15.60;99.90
23683;DHT22;24897;53.514;10.482;2022-09-09T06:22:33;15.60;99.90
23683;DHT22;24897;53.514;10.482;2022-09-09T06:25:17;15.70;99.90
23683;DHT22;24897;53.514;10.482;2022-09-09T06:28:02;16.00;99.90
23683;DHT22;24897;53.514;10.482;2022-09-09T06:30:46;16.00;99.90
23683;DHT22;24897;53.514;10.482;2022-09-09T06:33:32;16.10;99.90
23683;DHT22;24897;53.514;10.482;2022-09-09T06:36:30;16.30;99.90
23683;DHT22;24897;53.514;10.482;2022-09-09T06:39:15;16.20;99.90
23683;DHT22;24897;53.514;10.482;2022-09-09T06:41:59;16.30;99.90
23683;DHT22;24897;53.514;10.482;2022-09-09T06:44:44;17.40;99.90
23683;DHT22;24897;53.514;10.482;2022-09-09T06:47:28;16.30;99.90
23683;DHT22;24897;53.514;10.482;2022-09-09T06:50:12;16.30;99.90
23683;DHT22;24897;53.514;10.482;2022-09-09T06:52:58;16.40;99.90
23683;DHT22;24897;53.514;10.482;2022-09-09T06:55:42;16.40;99.90
23683;DHT22;24897;53.514;10.482;2022-09-09T06:58:28;16.50;99.90
23683;DHT22;24897;53.514;10.482;2022-09-09T07:01:21;16.50;99.90
23683;DHT22;24897;53.514;10.482;2022-09-09T07:04:05;16.40;99.90
23683;DHT22;24897;53.514;10.482;2022-09-09T07:06:52;16.30;99.90
23683;DHT22;24897;53.514;10.482;2022-09-09T07:09:36;16.30;99.90
23683;DHT22;24897;53.514;10.482;2022-09-09T07:12:21;16.20;99.90
23683;DHT22;24897;53.514;10.482;2022-09-09T07:15:06;16.10;99.90
23683;DHT22;24897;53.514;10.482;2022-09-09T07:17:50;16.20;99.90
23683;DHT22;24897;53.514;10.482;2022-09-09T07:20:35;16.20;99.90
23683;DHT22;24897;53.514;10.482;2022-09-09T07:23:20;16.30;99.90
23683;DHT22;24897;53.514;10.482;2022-09-09T07:26:13;16.30;99.90
23683;DHT22;24897;53.514;10.482;2022-09-09T07:28:57;16.30;99.90
23683;DHT22;24897;53.514;10.482;2022-09-09T07:31:41;16.30;99.90
23683;DHT22;24897;53.514;10.482;2022-09-09T07:34:25;16.30;99.90
23683;DHT22;24897;53.514;10.482;2022-09-09T07:37:09;16.30;99.90
23683;DHT22;24897;53.514;10.482;2022-09-09T07:39:55;16.50;99.90
23683;DHT22;24897;53.514;10.482;2022-09-09T07:42:39;16.80;99.90
23683;DHT22;24897;53.514;10.482;2022-09-09T07:45:23;16.60;99.90
23683;DHT22;24897;53.514;10.482;2022-09-09T07:48:09;16.70;99.90
23683;DHT22;24897;53.514;10.482;2022-09-09T07:51:02;16.90;99.90
23683;DHT22;24897;53.514;10.482;2022-09-09T07:53:47;16.90;99.90
23683;DHT22;24897;53.514;10.482;2022-09-09T07:56:32;17.00;99.90
23683;DHT22;24897;53.514;10.482;2022-09-09T07:59:17;17.00;99.90
23683;DHT22;24897;53.514;10.482;2022-09-09T08:02:02;17.20;99.90
23683;DHT22;24897;53.514;10.482;2022-09-09T08:04:46;17.30;99.90
23683;DHT22;24897;53.514;10.482;2022-09-09T08:07:31;17.80;99.90
23683;DHT22;24897;53.514;10.482;2022-09-09T08:10:15;18.20;99.90
23683;DHT22;24897;53.514;10.482;2022-09-09T08:13:00;18.20;99.90
23683;DHT22;24897;53.514;10.482;2022-09-09T08:15:44;18.20;99.90
23683;DHT22;24897;53.514;10.482;2022-09-09T08:18:28;18.10;99.90
23683;DHT22;24897;53.514;10.482;2022-09-09T08:21:14;17.90;99.90
23683;DHT22;24897;53.514;10.482;2022-09-09T08:24:01;17.90;99.90
23683;DHT22;24897;53.514;10.482;2022-09-09T08:26:47;17.70;99.90
23683;DHT22;24897;53.514;10.482;2022-09-09T08:29:35;17.50;99.90
23683;DHT22;24897;53.514;10.482;2022-09-09T08:32:19;17.00;99.90
23683;DHT22;24897;53.514;10.482;2022-09-09T08:35:03;17.30;99.90
23683;DHT22;24897;53.514;10.482;2022-09-09T08:37:48;17.30;99.90
23683;DHT22;24897;53.514;10.482;2022-09-09T08:40:35;17.20;99.90
23683;DHT22;24897;53.514;10.482;2022-09-09T08:43:24;17.30;99.90
23683;DHT22;24897;53.514;10.482;2022-09-09T08:46:24;17.40;99.90
23683;DHT22;24897;53.514;10.482;2022-09-09T08:55:51;17.70;99.90
23683;DHT22;24897;53.514;10.482;2022-09-09T08:58:47;17.60;99.90
23683;DHT22;24897;53.514;10.482;2022-09-09T09:10:53;17.70;99.90
23683;DHT22;24897;53.514;10.482;2022-09-09T09:13:50;17.60;99.90
23683;DHT22;24897;53.514;10.482;2022-09-09T09:19:32;18.00;99.90
23683;DHT22;24897;53.514;10.482;2022-09-09T09:25:40;18.30;99.90
23683;DHT22;24897;53.514;10.482;2022-09-09T09:28:26;18.40;99.90
23683;DHT22;24897;53.514;10.482;2022-09-09T09:31:12;18.40;99.90
23683;DHT22;24897;53.514;10.482;2022-09-09T09:33:57;18.70;99.90
23683;DHT22;24897;53.514;10.482;2022-09-09T09:36:53;19.30;99.90
23683;DHT22;24897;53.514;10.482;2022-09-09T09:39:38;20.30;99.90
23683;DHT22;24897;53.514;10.482;2022-09-09T09:42:23;20.30;99.90
23683;DHT22;24897;53.514;10.482;2022-09-09T09:45:35;20.60;99.90
23683;DHT22;24897;53.514;10.482;2022-09-09T09:48:27;20.60;99.90
23683;DHT22;24897;53.514;10.482;2022-09-09T09:51:14;20.70;99.90
23683;DHT22;24897;53.514;10.482;2022-09-09T09:54:17;21.20;99.90
23683;DHT22;24897;53.514;10.482;2022-09-09T09:57:11;21.90;99.90
23683;DHT22;24897;53.514;10.482;2022-09-09T10:00:18;22.30;99.90
23683;DHT22;24897;53.514;10.482;2022-09-09T10:03:19;22.10;99.90
23683;DHT22;24897;53.514;10.482;2022-09-09T10:06:05;21.70;99.90
23683;DHT22;24897;53.514;10.482;2022-09-09T10:08:49;21.50;99.90
23683;DHT22;24897;53.514;10.482;2022-09-09T10:11:48;22.10;99.90
23683;DHT22;24897;53.514;10.482;2022-09-09T10:15:18;22.10;99.90
23683;DHT22;24897;53.514;10.482;2022-09-09T10:30:35;21.60;99.90
23683;DHT22;24897;53.514;10.482;2022-09-09T10:36:26;22.10;99.90
23683;DHT22;24897;53.514;10.482;2022-09-09T10:42:16;22.00;99.90
23683;DHT22;24897;53.514;10.482;2022-09-09T10:45:13;22.00;99.90
23683;DHT22;24897;53.514;10.482;2022-09-09T10:48:29;21.80;99.90
23683;DHT22;24897;53.514;10.482;2022-09-09T10:57:33;21.50;99.90
23683;DHT22;24897;53.514;10.482;2022-09-09T11:03:25;21.10;99.90
23683;DHT22;24897;53.514;10.482;2022-09-09T11:06:18;21.40;99.90
23683;DHT22;24897;53.514;10.482;2022-09-09T11:09:03;21.70;99.90
23683;DHT22;24897;53.514;10.482;2022-09-09T11:11:59;21.80;99.90
23683;DHT22;24897;53.514;10.482;2022-09-09T11:15:12;21.90;99.90
23683;DHT22;24897;53.514;10.482;2022-09-09T11:18:01;22.00;99.90
23683;DHT22;24897;53.514;10.482;2022-09-09T11:20:58;22.40;99.90
23683;DHT22;24897;53.514;10.482;2022-09-09T11:23:48;23.10;99.90
23683;DHT22;24897;53.514;10.482;2022-09-09T11:27:06;23.40;99.90
23683;DHT22;24897;53.514;10.482;2022-09-09T11:30:21;23.80;99.90
23683;DHT22;24897;53.514;10.482;2022-09-09T11:33:16;24.00;99.90
23683;DHT22;24897;53.514;10.482;2022-09-09T11:42:23;23.60;99.90
23683;DHT22;24897;53.514;10.482;2022-09-09T11:45:27;23.40;99.90
23683;DHT22;24897;53.514;10.482;2022-09-09T11:48:43;23.80;99.90
23683;DHT22;24897;53.514;10.482;2022-09-09T11:51:31;24.20;99.90
23683;DHT22;24897;53.514;10.482;2022-09-09T11:54:29;24.50;99.90
23683;DHT22;24897;53.514;10.482;2022-09-09T12:00:36;25.30;99.90
23683;DHT22;24897;53.514;10.482;2022-09-09T12:04:27;25.10;99.90
23683;DHT22;24897;53.514;10.482;2022-09-09T12:07:00;25.20;99.90
23683;DHT22;24897;53.514;10.482;2022-09-09T12:09:50;25.30;99.90
23683;DHT22;24897;53.514;10.482;2022-09-09T12:12:38;24.80;99.90
23683;DHT22;24897;53.514;10.482;2022-09-09T12:15:25;23.90;99.90
23683;DHT22;24897;53.514;10.482;2022-09-09T12:18:20;23.10;99.90
23683;DHT22;24897;53.514;10.482;2022-09-09T12:24:42;22.00;99.90
23683;DHT22;24897;53.514;10.482;2022-09-09T12:27:34;21.60;99.90
23683;DHT22;24897;53.514;10.482;2022-09-09T12:30:21;21.30;99.90
23683;DHT22;24897;53.514;10.482;2022-09-09T12:33:12;21.00;99.90
23683;DHT22;24897;53.514;10.482;2022-09-09T12:35:58;20.40;99.90
23683;DHT22;24897;53.514;10.482;2022-09-09T12:38:43;20.10;99.90
23683;DHT22;24897;53.514;10.482;2022-09-09T12:41:28;20.00;99.90
23683;DHT22;24897;53.514;10.482;2022-09-09T12:44:12;20.00;99.90
23683;DHT22;24897;53.514;10.482;2022-09-09T12:47:02;19.70;99.90
23683;DHT22;24897;53.514;10.482;2022-09-09T12:49:47;19.50;99.90
23683;DHT22;24897;53.514;10.482;2022-09-09T12:52:35;19.60;99.90
23683;DHT22;24897;53.514;10.482;2022-09-09T12:55:24;19.60;99.90
23683;DHT22;24897;53.514;10.482;2022-09-09T12:58:13;19.50;99.90
23683;DHT22;24897;53.514;10.482;2022-09-09T13:01:02;19.40;99.90
23683;DHT22;24897;53.514;10.482;2022-09-09T13:03:49;19.40;99.90
23683;DHT22;24897;53.514;10.482;2022-09-09T13:06:33;19.60;99.90
23683;DHT22;24897;53.514;10.482;2022-09-09T13:09:19;19.80;99.90
23683;DHT22;24897;53.514;10.482;2022-09-09T13:12:04;20.00;99.90
23683;DHT22;24897;53.514;10.482;2022-09-09T13:14:54;20.30;99.90
23683;DHT22;24897;53.514;10.482;2022-09-09T13:17:40;20.30;99.90
23683;DHT22;24897;53.514;10.482;2022-09-09T13:20:25;20.30;99.90
23683;DHT22;24897;53.514;10.482;2022-09-09T13:23:11;20.30;99.90
23683;DHT22;24897;53.514;10.482;2022-09-09T13:25:58;20.10;99.90
23683;DHT22;24897;53.514;10.482;2022-09-09T13:28:43;20.00;99.90
23683;DHT22;24897;53.514;10.482;2022-09-09T13:31:32;20.00;99.90
23683;DHT22;24897;53.514;10.482;2022-09-09T13:34:29;19.90;99.90
23683;DHT22;24897;53.514;10.482;2022-09-09T13:37:30;19.80;99.90
23683;DHT22;24897;53.514;10.482;2022-09-09T13:40:22;19.80;99.90
23683;DHT22;24897;53.514;10.482;2022-09-09T13:43:18;19.90;99.90
23683;DHT22;24897;53.514;10.482;2022-09-09T13:54:51;19.80;99.90
23683;DHT22;24897;53.514;10.482;2022-09-09T13:57:35;19.90;99.90
23683;DHT22;24897;53.514;10.482;2022-09-09T14:00:19;20.00;99.90
23683;DHT22;24897;53.514;10.482;2022-09-09T14:03:04;20.00;99.90
23683;DHT22;24897;53.514;10.482;2022-09-09T14:05:48;20.00;99.90
23683;DHT22;24897;53.514;10.482;2022-09-09T14:08:33;20.20;99.90
23683;DHT22;24897;53.514;10.482;2022-09-09T14:11:21;20.00;99.90
23683;DHT22;24897;53.514;10.482;2022-09-09T14:14:05;20.10;99.90
23683;DHT22;24897;53.514;10.482;2022-09-09T14:16:50;20.40;99.90
23683;DHT22;24897;53.514;10.482;2022-09-09T14:19:34;20.40;99.90
23683;DHT22;24897;53.514;10.482;2022-09-09T14:22:18;20.20;99.90
23683;DHT22;24897;53.514;10.482;2022-09-09T14:25:03;20.10;99.90
23683;DHT22;24897;53.514;10.482;2022-09-09T14:27:48;20.20;99.90
23683;DHT22;24897;53.514;10.482;2022-09-09T14:30:33;20.20;99.90
23683;DHT22;24897;53.514;10.482;2022-09-09T14:33:17;20.00;99.90
23683;DHT22;24897;53.514;10.482;2022-09-09T14:36:03;19.90;99.90
23683;DHT22;24897;53.514;10.482;2022-09-09T14:38:47;19.90;99.90
23683;DHT22;24897;53.514;10.482;2022-09-09T14:41:32;19.90;99.90
23683;DHT22;24897;53.514;10.482;2022-09-09T14:44:16;19.70;99.90
23683;DHT22;24897;53.514;10.482;2022-09-09T14:47:00;19.60;99.90
23683;DHT22;24897;53.514;10.482;2022-09-09T14:49:44;19.40;99.90
23683;DHT22;24897;53.514;10.482;2022-09-09T14:52:30;19.10;99.90
23683;DHT22;24897;53.514;10.482;2022-09-09T14:55:14;18.90;99.90
23683;DHT22;24897;53.514;10.482;2022-09-09T14:57:59;18.60;99.90
23683;DHT22;24897;53.514;10.482;2022-09-09T15:00:43;18.30;99.90
23683;DHT22;24897;53.514;10.482;2022-09-09T15:03:27;18.00;99.90
23683;DHT22;24897;53.514;10.482;2022-09-09T15:06:13;17.70;99.90
23683;DHT22;24897;53.514;10.482;2022-09-09T15:08:59;17.50;99.90
23683;DHT22;24897;53.514;10.482;2022-09-09T15:11:43;17.40;99.90
23683;DHT22;24897;53.514;10.482;2022-09-09T15:14:28;17.30;99.90
23683;DHT22;24897;53.514;10.482;2022-09-09T15:17:13;17.30;99.90
23683;DHT22;24897;53.514;10.482;2022-09-09T15:19:57;17.10;99.90
23683;DHT22;24897;53.514;10.482;2022-09-09T15:25:25;17.30;99.90
23683;DHT22;24897;53.514;10.482;2022-09-09T15:28:10;17.20;99.90
23683;DHT22;24897;53.514;10.482;2022-09-09T15:30:54;17.10;99.90
23683;DHT22;24897;53.514;10.482;2022-09-09T15:33:41;17.00;99.90
23683;DHT22;24897;53.514;10.482;2022-09-09T15:36:26;16.80;99.90
23683;DHT22;24897;53.514;10.482;2022-09-09T15:39:14;17.00;99.90
23683;DHT22;24897;53.514;10.482;2022-09-09T15:42:02;17.00;99.90
23683;DHT22;24897;53.514;10.482;2022-09-09T15:44:46;16.90;99.90
23683;DHT22;24897;53.514;10.482;2022-09-09T15:47:30;16.90;99.90
23683;DHT22;24897;53.514;10.482;2022-09-09T15:50:14;16.80;99.90
23683;DHT22;24897;53.514;10.482;2022-09-09T15:52:59;16.90;99.90
23683;DHT22;24897;53.514;10.482;2022-09-09T15:55:43;16.80;99.90
23683;DHT22;24897;53.514;10.482;2022-09-09T15:58:30;17.00;99.90
23683;DHT22;24897;53.514;10.482;2022-09-09T16:01:15;16.60;99.90
23683;DHT22;24897;53.514;10.482;2022-09-09T16:04:00;16.60;99.90
23683;DHT22;24897;53.514;10.482;2022-09-09T16:06:45;16.70;99.90
23683;DHT22;24897;53.514;10.482;2022-09-09T16:09:30;16.70;99.90
23683;DHT22;24897;53.514;10.482;2022-09-09T16:12:14;16.70;99.90
23683;DHT22;24897;53.514;10.482;2022-09-09T16:14:59;16.80;99.90
23683;DHT22;24897;53.514;10.482;2022-09-09T16:17:43;16.80;99.90
23683;DHT22;24897;53.514;10.482;2022-09-09T16:20:28;16.80;99.90
23683;DHT22;24897;53.514;10.482;2022-09-09T16:23:13;16.70;99.90
23683;DHT22;24897;53.514;10.482;2022-09-09T16:25:57;17.60;99.90
23683;DHT22;24897;53.514;10.482;2022-09-09T16:28:42;16.80;99.90
23683;DHT22;24897;53.514;10.482;2022-09-09T16:31:28;16.80;99.90
23683;DHT22;24897;53.514;10.482;2022-09-09T16:34:13;16.80;99.90
23683;DHT22;24897;53.514;10.482;2022-09-09T16:36:58;18.30;99.90
23683;DHT22;24897;53.514;10.482;2022-09-09T16:39:42;16.90;99.90
23683;DHT22;24897;53.514;10.482;2022-09-09T16:42:26;17.40;99.90
23683;DHT22;24897;53.514;10.482;2022-09-09T16:47:56;16.90;99.90
23683;DHT22;24897;53.514;10.482;2022-09-09T16:50:40;17.00;99.90
23683;DHT22;24897;53.514;10.482;2022-09-09T16:53:24;17.00;99.90
23683;DHT22;24897;53.514;10.482;2022-09-09T16:56:11;17.10;99.90
23683;DHT22;24897;53.514;10.482;2022-09-09T16:58:59;17.20;99.90
23683;DHT22;24897;53.514;10.482;2022-09-09T17:01:45;17.20;99.90
23683;DHT22;24897;53.514;10.482;2022-09-09T17:04:29;17.30;99.90
23683;DHT22;24897;53.514;10.482;2022-09-09T17:07:14;17.30;99.90
23683;DHT22;24897;53.514;10.482;2022-09-09T17:09:58;17.30;99.90
23683;DHT22;24897;53.514;10.482;2022-09-09T17:12:42;17.30;99.90
23683;DHT22;24897;53.514;10.482;2022-09-09T17:15:27;17.40;99.90
23683;DHT22;24897;53.514;10.482;2022-09-09T17:18:12;17.30;99.90
23683;DHT22;24897;53.514;10.482;2022-09-09T17:21:05;17.40;99.90
23683;DHT22;24897;53.514;10.482;2022-09-09T17:23:51;17.30;99.90
23683;DHT22;24897;53.514;10.482;2022-09-09T17:26:36;17.40;99.90
23683;DHT22;24897;53.514;10.482;2022-09-09T17:29:21;17.50;99.90
23683;DHT22;24897;53.514;10.482;2022-09-09T17:32:06;17.40;99.90
23683;DHT22;24897;53.514;10.482;2022-09-09T17:34:50;17.30;99.90
23683;DHT22;24897;53.514;10.482;2022-09-09T17:37:36;17.30;99.90
23683;DHT22;24897;53.514;10.482;2022-09-09T17:40:21;17.30;99.90
23683;DHT22;24897;53.514;10.482;2022-09-09T17:45:49;17.20;99.90
23683;DHT22;24897;53.514;10.482;2022-09-09T17:48:34;16.70;99.90
23683;DHT22;24897;53.514;10.482;2022-09-09T17:51:21;17.10;99.90
23683;DHT22;24897;53.514;10.482;2022-09-09T17:54:13;17.10;99.90
23683;DHT22;24897;53.514;10.482;2022-09-09T17:56:57;17.00;99.90
23683;DHT22;24897;53.514;10.482;2022-09-09T17:59:43;17.00;99.90
23683;DHT22;24897;53.514;10.482;2022-09-09T18:02:27;17.10;99.90
23683;DHT22;24897;53.514;10.482;2022-09-09T18:05:11;16.90;99.90
23683;DHT22;24897;53.514;10.482;2022-09-09T18:07:55;16.90;99.90
23683;DHT22;24897;53.514;10.482;2022-09-09T18:10:39;16.60;99.90
23683;DHT22;24897;53.514;10.482;2022-09-09T18:13:23;16.80;99.90
23683;DHT22;24897;53.514;10.482;2022-09-09T18:16:09;16.80;99.90
23683;DHT22;24897;53.514;10.482;2022-09-09T18:18:55;16.60;99.90
23683;DHT22;24897;53.514;10.482;2022-09-09T18:21:42;16.60;99.90
23683;DHT22;24897;53.514;10.482;2022-09-09T18:24:27;17.20;99.90
23683;DHT22;24897;53.514;10.482;2022-09-09T18:27:12;17.00;99.90
23683;DHT22;24897;53.514;10.482;2022-09-09T18:29:56;16.60;99.90
23683;DHT22;24897;53.514;10.482;2022-09-09T18:32:40;16.50;99.90
23683;DHT22;24897;53.514;10.482;2022-09-09T18:35:25;16.50;99.90
23683;DHT22;24897;53.514;10.482;2022-09-09T18:38:09;16.40;99.90
23683;DHT22;24897;53.514;10.482;2022-09-09T18:40:53;16.40;99.90
23683;DHT22;24897;53.514;10.482;2022-09-09T18:43:37;16.40;99.90
23683;DHT22;24897;53.514;10.482;2022-09-09T18:46:22;16.30;99.90
23683;DHT22;24897;53.514;10.482;2022-09-09T18:49:07;16.30;99.90
23683;DHT22;24897;53.514;10.482;2022-09-09T18:51:52;16.30;99.90
23683;DHT22;24897;53.514;10.482;2022-09-09T18:54:36;16.20;99.90
23683;DHT22;24897;53.514;10.482;2022-09-09T18:57:20;16.20;99.90
23683;DHT22;24897;53.514;10.482;2022-09-09T19:00:05;16.10;99.90
23683;DHT22;24897;53.514;10.482;2022-09-09T19:02:49;16.20;99.90
23683;DHT22;24897;53.514;10.482;2022-09-09T19:05:35;16.10;99.90
23683;DHT22;24897;53.514;10.482;2022-09-09T19:08:19;16.10;99.90
23683;DHT22;24897;53.514;10.482;2022-09-09T19:11:06;16.30;99.90
23683;DHT22;24897;53.514;10.482;2022-09-09T19:14:11;16.00;99.90
23683;DHT22;24897;53.514;10.482;2022-09-09T19:16:56;15.90;99.90
23683;DHT22;24897;53.514;10.482;2022-09-09T19:19:44;16.30;99.90
23683;DHT22;24897;53.514;10.482;2022-09-09T19:22:28;15.90;99.90
23683;DHT22;24897;53.514;10.482;2022-09-09T19:25:12;16.00;99.90